Time;durP1;ratioP1;P1;durP2;ratioP2;P2;SDS_P1;SDS_P2;PMS_P1;PMS_P2;Temp;Humidity;BMP_temperature;BMP_pressure;BME280_temperature;BME280_humidity;BME280_pressure;Samples;Min_cycle;Max_cycle;Signal;HPM_P1;HPM_P2
2023/11/08 00:02:11;;;;;;;24.13;13.23;;;8.30;99.90;;;;;;5079325;28;20047;-75
2023/11/08 00:04:36;;;;;;;23.33;11.77;;;8.20;99.90;;;;;;5080209;28;20021;-74
2023/11/08 00:07:03;;;;;;;29.85;12.65;;;8.30;99.90;;;;;;5083337;28;20359;-71
2023/11/08 00:09:29;;;;;;;21.95;11.80;;;8.30;99.90;;;;;;5081644;28;20029;-74
2023/11/08 00:11:55;;;;;;;28.27;12.27;;;8.30;99.90;;;;;;5081774;28;20017;-72
2023/11/08 00:14:21;;;;;;;27.88;12.77;;;8.30;99.90;;;;;;5081478;28;20165;-74
2023/11/08 00:16:47;;;;;;;23.83;12.57;;;8.40;99.90;;;;;;5083215;28;20024;-75
2023/11/08 00:19:16;;;;;;;26.83;12.88;;;8.40;99.90;;;;;;5083503;28;21153;-72
2023/11/08 00:21:42;;;;;;;26.75;12.63;;;8.30;99.90;;;;;;5082725;28;20019;-74
2023/11/08 00:24:08;;;;;;;25.08;12.50;;;8.40;99.90;;;;;;5083294;28;20060;-74
2023/11/08 00:26:33;;;;;;;24.90;13.77;;;8.30;99.90;;;;;;5082955;28;20358;-75
2023/11/08 00:28:59;;;;;;;27.83;13.95;;;8.30;99.90;;;;;;5082974;28;20051;-73
2023/11/08 00:31:24;;;;;;;30.02;14.05;;;8.20;99.90;;;;;;5083431;28;20028;-74
2023/11/08 00:33:52;;;;;;;30.50;14.60;;;8.30;99.90;;;;;;5083081;28;20047;-74
2023/11/08 00:36:18;;;;;;;26.02;11.63;;;8.20;99.90;;;;;;5081208;28;20047;-75
2023/11/08 00:38:46;;;;;;;25.52;13.52;;;8.30;99.90;;;;;;5082842;28;20469;-74
2023/11/08 00:41:13;;;;;;;28.80;13.38;;;8.20;99.90;;;;;;5082205;28;20048;-72
2023/11/08 00:43:39;;;;;;;27.63;13.50;;;8.20;99.90;;;;;;5082839;28;20040;-74
2023/11/08 00:46:07;;;;;;;32.95;13.93;;;8.20;99.90;;;;;;5081515;28;20085;-72
2023/11/08 00:48:36;;;;;;;32.95;14.25;;;8.20;99.90;;;;;;5080629;28;20017;-73
2023/11/08 00:51:03;;;;;;;30.70;12.90;;;8.20;99.90;;;;;;5082292;28;20065;-72
2023/11/08 00:53:29;;;;;;;28.00;14.60;;;8.20;99.90;;;;;;5081283;28;20147;-72
2023/11/08 00:55:55;;;;;;;28.38;14.85;;;8.20;99.90;;;;;;5081565;28;20024;-73
2023/11/08 00:58:21;;;;;;;32.15;14.88;;;8.10;99.90;;;;;;5082182;28;20045;-73
2023/11/08 01:00:48;;;;;;;31.45;15.13;;;8.10;99.90;;;;;;5082406;28;20025;-71
2023/11/08 01:03:15;;;;;;;33.70;13.35;;;8.20;99.90;;;;;;5081922;28;20032;-74
2023/11/08 01:05:41;;;;;;;28.00;14.10;;;8.10;99.90;;;;;;5082580;28;20126;-72
2023/11/08 01:08:07;;;;;;;28.95;13.85;;;8.10;99.90;;;;;;5082556;28;20050;-72
2023/11/08 01:10:33;;;;;;;29.50;15.18;;;8.00;99.90;;;;;;5082203;28;20024;-73
2023/11/08 01:12:58;;;;;;;32.28;14.38;;;8.10;99.90;;;;;;5082498;28;20040;-71
2023/11/08 01:15:24;;;;;;;30.13;14.90;;;8.10;99.90;;;;;;5082310;28;20032;-74
2023/11/08 01:17:50;;;;;;;29.30;14.70;;;8.10;99.90;;;;;;5082076;28;20056;-71
2023/11/08 01:20:15;;;;;;;26.73;14.10;;;8.10;99.90;;;;;;5082321;28;20032;-71
2023/11/08 01:22:41;;;;;;;25.42;14.73;;;8.10;99.90;;;;;;5082172;28;20025;-71
2023/11/08 01:25:08;;;;;;;31.83;15.85;;;8.20;99.90;;;;;;5081309;28;20019;-72
2023/11/08 01:27:34;;;;;;;28.15;15.27;;;8.10;99.90;;;;;;5082049;28;20416;-72
2023/11/08 01:30:01;;;;;;;32.20;15.00;;;8.10;99.90;;;;;;5080438;28;20028;-74
2023/11/08 01:32:27;;;;;;;32.13;14.32;;;8.00;99.90;;;;;;5080080;28;20037;-73
2023/11/08 01:34:52;;;;;;;31.52;15.25;;;8.00;99.90;;;;;;5080703;28;20702;-71
2023/11/08 01:37:18;;;;;;;27.52;14.70;;;8.00;99.90;;;;;;5081114;28;20052;-71
2023/11/08 01:39:44;;;;;;;31.25;14.30;;;8.00;99.90;;;;;;5081684;28;20436;-72
2023/11/08 01:42:09;;;;;;;28.88;14.00;;;7.90;99.90;;;;;;5080290;28;20020;-73
2023/11/08 01:44:35;;;;;;;27.13;14.18;;;8.00;99.90;;;;;;5081599;28;20039;-72
2023/11/08 01:47:02;;;;;;;31.17;15.13;;;8.00;99.90;;;;;;5081792;28;20024;-74
2023/11/08 01:49:28;;;;;;;24.20;13.77;;;8.00;99.90;;;;;;5081419;28;20024;-73
2023/11/08 01:51:55;;;;;;;33.92;15.60;;;8.00;99.90;;;;;;5081487;28;20077;-72
2023/11/08 01:54:27;;;;;;;27.63;13.60;;;7.90;99.90;;;;;;5079558;28;20016;-75
2023/11/08 01:56:55;;;;;;;27.75;12.82;;;7.90;99.90;;;;;;5079767;28;20063;-73
2023/11/08 01:59:24;;;;;;;24.85;12.77;;;7.80;99.90;;;;;;5079651;28;20033;-74
2023/11/08 02:01:50;;;;;;;21.42;12.45;;;7.90;99.90;;;;;;5080486;28;20029;-72
2023/11/08 02:04:17;;;;;;;25.90;13.95;;;7.90;99.90;;;;;;5080486;28;20047;-76
2023/11/08 02:06:43;;;;;;;23.50;12.70;;;7.90;99.90;;;;;;5079290;28;20053;-75
2023/11/08 02:09:09;;;;;;;22.55;12.80;;;7.90;99.90;;;;;;5077706;28;20025;-75
2023/11/08 02:11:35;;;;;;;27.67;13.18;;;7.90;99.90;;;;;;5080298;28;20055;-75
2023/11/08 02:14:02;;;;;;;26.10;12.80;;;7.90;99.90;;;;;;5080885;28;20040;-73
2023/11/08 02:16:33;;;;;;;21.58;12.23;;;7.90;99.90;;;;;;5080190;28;20025;-73
2023/11/08 02:18:59;;;;;;;28.67;12.98;;;7.90;99.90;;;;;;5080499;28;20504;-74
2023/11/08 02:21:24;;;;;;;21.55;11.40;;;7.90;99.90;;;;;;5078747;28;20040;-74
2023/11/08 02:23:50;;;;;;;23.25;11.90;;;8.00;99.90;;;;;;5080343;28;20025;-73
2023/11/08 02:26:16;;;;;;;22.90;10.70;;;7.90;99.90;;;;;;5080244;28;20107;-72
2023/11/08 02:28:41;;;;;;;19.80;10.18;;;8.00;99.90;;;;;;5080039;28;20035;-73
2023/11/08 02:31:07;;;;;;;19.05;10.82;;;7.90;99.90;;;;;;5078762;28;20028;-74
2023/11/08 02:33:32;;;;;;;13.13;7.25;;;7.90;99.90;;;;;;5080216;28;20118;-72
2023/11/08 02:36:00;;;;;;;16.63;9.55;;;7.90;99.90;;;;;;5080624;28;20028;-72
2023/11/08 02:38:27;;;;;;;16.60;8.88;;;8.00;99.90;;;;;;5078126;28;20064;-75
2023/11/08 02:40:53;;;;;;;16.80;8.73;;;7.90;99.90;;;;;;5078793;28;20058;-74
2023/11/08 02:43:18;;;;;;;18.52;9.57;;;7.90;99.90;;;;;;5079804;28;20025;-77
2023/11/08 02:45:44;;;;;;;18.35;9.00;;;8.00;99.90;;;;;;5078814;28;20032;-76
2023/11/08 02:48:09;;;;;;;15.45;8.60;;;7.90;99.90;;;;;;5079784;28;20020;-73
2023/11/08 02:50:40;;;;;;;16.33;8.60;;;8.00;99.90;;;;;;5080069;28;20035;-74
2023/11/08 02:53:09;;;;;;;18.88;8.80;;;8.00;99.90;;;;;;5079300;28;20515;-75
2023/11/08 02:55:37;;;;;;;21.05;9.25;;;8.00;99.90;;;;;;5079176;28;20025;-72
2023/11/08 02:58:03;;;;;;;19.38;8.88;;;8.00;99.90;;;;;;5078786;28;20110;-74
2023/11/08 03:00:29;;;;;;;17.10;9.82;;;8.00;99.90;;;;;;5079821;28;20036;-75
2023/11/08 03:02:55;;;;;;;18.13;9.98;;;8.00;99.90;;;;;;5080587;28;20032;-72
2023/11/08 03:05:21;;;;;;;20.20;10.68;;;8.10;99.90;;;;;;5079406;28;20029;-73
2023/11/08 03:07:52;;;;;;;19.50;10.02;;;8.00;99.90;;;;;;5078921;28;20043;-72
2023/11/08 03:10:19;;;;;;;22.85;11.68;;;8.00;99.90;;;;;;5079384;28;21026;-73
2023/11/08 03:12:46;;;;;;;22.27;11.30;;;8.00;99.90;;;;;;5079586;28;20020;-73
2023/11/08 03:15:12;;;;;;;21.85;11.20;;;8.10;99.90;;;;;;5078406;28;20021;-71
2023/11/08 03:17:44;;;;;;;24.35;12.43;;;8.00;99.90;;;;;;5079548;28;20032;-70
2023/11/08 03:20:14;;;;;;;24.80;13.27;;;8.10;99.90;;;;;;5079024;28;20028;-70
2023/11/08 03:22:40;;;;;;;29.25;15.18;;;8.10;99.90;;;;;;5079427;28;20031;-71
2023/11/08 03:25:13;;;;;;;29.48;14.95;;;8.00;99.90;;;;;;5079991;28;20033;-73
2023/11/08 03:27:41;;;;;;;27.15;13.80;;;8.00;99.90;;;;;;5078021;28;20259;-75
2023/11/08 03:30:08;;;;;;;25.05;13.55;;;8.00;99.90;;;;;;5078246;28;20017;-74
2023/11/08 03:32:34;;;;;;;27.25;15.32;;;8.00;99.90;;;;;;5078993;28;20020;-73
2023/11/08 03:34:59;;;;;;;27.08;13.85;;;8.10;99.90;;;;;;5079529;28;20163;-71
2023/11/08 03:37:25;;;;;;;28.90;14.07;;;8.00;99.90;;;;;;5079387;28;20060;-71
2023/11/08 03:39:51;;;;;;;30.15;14.60;;;8.00;99.90;;;;;;5080930;28;20463;-71
2023/11/08 03:42:16;;;;;;;28.23;14.65;;;8.10;99.90;;;;;;5081999;28;20027;-71
2023/11/08 03:44:42;;;;;;;30.90;15.75;;;8.10;99.90;;;;;;5083666;28;20065;-71
2023/11/08 03:47:10;;;;;;;31.25;17.50;;;8.10;99.90;;;;;;5083672;28;20025;-72
2023/11/08 03:49:35;;;;;;;32.05;15.85;;;8.10;99.90;;;;;;5082881;28;20105;-72
2023/11/08 03:52:02;;;;;;;32.22;14.85;;;8.10;99.90;;;;;;5082041;28;20031;-73
2023/11/08 03:54:28;;;;;;;29.98;16.38;;;8.10;99.90;;;;;;5083166;28;20020;-73
2023/11/08 03:56:54;;;;;;;34.55;15.95;;;8.10;99.90;;;;;;5082733;28;20013;-71
2023/11/08 03:59:19;;;;;;;35.97;16.10;;;8.20;99.90;;;;;;5083301;28;20674;-71
2023/11/08 04:01:48;;;;;;;28.00;15.35;;;8.10;99.90;;;;;;5083073;28;20024;-71
2023/11/08 04:04:14;;;;;;;25.20;14.18;;;8.20;99.90;;;;;;5082618;28;20036;-70
2023/11/08 04:06:39;;;;;;;29.50;15.85;;;8.20;99.90;;;;;;5083144;28;20032;-71
2023/11/08 04:09:05;;;;;;;27.27;16.30;;;8.20;99.90;;;;;;5082068;28;20055;-72
2023/11/08 04:11:31;;;;;;;27.45;15.35;;;8.20;99.90;;;;;;5081195;28;20046;-71
2023/11/08 04:13:57;;;;;;;31.95;15.52;;;8.20;99.90;;;;;;5083303;28;20052;-72
2023/11/08 04:16:22;;;;;;;26.63;14.70;;;8.20;99.90;;;;;;5082213;28;20058;-71
2023/11/08 04:18:49;;;;;;;32.58;16.02;;;8.10;99.90;;;;;;5082804;28;20060;-71
2023/11/08 04:21:15;;;;;;;31.05;16.98;;;8.10;99.90;;;;;;5082693;28;20021;-74
2023/11/08 04:23:41;;;;;;;29.15;15.32;;;8.10;99.90;;;;;;5082462;28;20025;-72
2023/11/08 04:26:06;;;;;;;30.25;15.95;;;8.20;99.90;;;;;;5081407;28;20036;-71
2023/11/08 04:28:33;;;;;;;29.58;14.95;;;8.10;99.90;;;;;;5081341;28;20029;-79
2023/11/08 04:30:58;;;;;;;29.33;15.48;;;8.20;99.90;;;;;;5082750;28;20033;-75
2023/11/08 04:33:24;;;;;;;29.55;16.70;;;8.10;99.90;;;;;;5082147;28;21398;-73
2023/11/08 04:35:51;;;;;;;27.00;15.88;;;8.20;99.90;;;;;;5082522;28;20135;-72
2023/11/08 04:38:16;;;;;;;27.70;14.38;;;8.20;99.90;;;;;;5080358;28;20047;-71
2023/11/08 04:40:43;;;;;;;28.60;15.45;;;8.20;99.90;;;;;;5082644;28;20028;-74
2023/11/08 04:43:08;;;;;;;29.08;15.38;;;8.20;99.90;;;;;;5081418;28;20056;-71
2023/11/08 04:45:36;;;;;;;32.50;16.45;;;8.20;99.90;;;;;;5082046;28;20044;-70
2023/11/08 04:48:03;;;;;;;29.65;15.95;;;8.20;99.90;;;;;;5082770;28;20023;-72
2023/11/08 04:50:29;;;;;;;31.00;15.48;;;8.20;99.90;;;;;;5081809;28;20036;-74
2023/11/08 04:52:55;;;;;;;32.85;16.85;;;8.20;99.90;;;;;;5083055;28;20024;-72
2023/11/08 04:55:21;;;;;;;29.88;16.10;;;8.20;99.90;;;;;;5083043;28;20028;-70
2023/11/08 04:57:46;;;;;;;33.08;16.90;;;8.20;99.90;;;;;;5082155;28;20059;-72
2023/11/08 05:00:12;;;;;;;33.03;16.70;;;8.20;99.90;;;;;;5082417;28;20023;-72
2023/11/08 05:02:40;;;;;;;26.80;15.68;;;8.20;99.90;;;;;;5082506;28;20032;-74
2023/11/08 05:05:06;;;;;;;34.17;17.25;;;8.20;99.90;;;;;;5081821;28;20024;-71
2023/11/08 05:07:32;;;;;;;30.17;16.70;;;8.20;99.90;;;;;;5082467;28;20024;-74
2023/11/08 05:09:58;;;;;;;24.88;13.95;;;8.20;99.90;;;;;;5082785;28;20074;-77
2023/11/08 05:12:23;;;;;;;31.85;16.33;;;8.10;99.90;;;;;;5082377;28;20028;-73
2023/11/08 05:14:49;;;;;;;26.40;14.50;;;8.00;99.90;;;;;;5082479;28;20028;-73
2023/11/08 05:17:20;;;;;;;27.70;14.85;;;8.10;99.90;;;;;;5082365;28;20040;-71
2023/11/08 05:19:46;;;;;;;25.35;14.45;;;8.10;99.90;;;;;;5081312;28;20034;-72
2023/11/08 05:22:12;;;;;;;25.75;13.15;;;8.10;99.90;;;;;;5082300;28;20029;-72
2023/11/08 05:24:37;;;;;;;22.00;12.95;;;8.10;99.90;;;;;;5082062;28;20024;-73
2023/11/08 05:27:04;;;;;;;24.48;13.07;;;8.20;99.90;;;;;;5081787;28;20037;-73
2023/11/08 05:29:31;;;;;;;21.98;12.02;;;8.10;99.90;;;;;;5077392;28;20529;-74
2023/11/08 05:31:57;;;;;;;19.75;11.15;;;8.10;99.90;;;;;;5082099;28;20032;-75
2023/11/08 05:34:25;;;;;;;19.85;11.45;;;8.10;99.90;;;;;;5081786;28;20029;-75
2023/11/08 05:36:51;;;;;;;16.70;9.80;;;8.20;99.90;;;;;;5081638;28;20481;-75
2023/11/08 05:39:22;;;;;;;19.40;9.85;;;8.10;99.90;;;;;;5080607;28;20039;-74
2023/11/08 05:41:48;;;;;;;16.15;9.23;;;8.20;99.90;;;;;;5081205;28;20024;-71
2023/11/08 05:44:15;;;;;;;17.15;9.60;;;8.20;99.90;;;;;;5081475;28;20024;-75
2023/11/08 05:46:41;;;;;;;20.70;9.93;;;8.20;99.90;;;;;;5081665;28;20032;-73
2023/11/08 05:49:08;;;;;;;18.95;10.60;;;8.20;99.90;;;;;;5080873;28;20056;-73
2023/11/08 05:51:34;;;;;;;19.73;10.85;;;8.30;99.90;;;;;;5081609;28;20056;-74
2023/11/08 05:54:00;;;;;;;22.75;11.57;;;8.20;99.90;;;;;;5080988;28;20046;-71
2023/11/08 05:56:26;;;;;;;22.33;12.07;;;8.30;99.90;;;;;;5080100;28;20103;-75
2023/11/08 05:58:52;;;;;;;21.85;12.60;;;8.20;99.90;;;;;;5080110;28;20683;-73
2023/11/08 06:01:20;;;;;;;25.75;13.35;;;8.20;99.90;;;;;;5080468;28;20043;-72
2023/11/08 06:03:46;;;;;;;27.50;13.30;;;8.30;99.90;;;;;;5078838;28;20028;-73
2023/11/08 06:06:12;;;;;;;27.17;14.27;;;8.10;99.90;;;;;;5081412;28;20051;-73
2023/11/08 06:08:38;;;;;;;26.50;13.77;;;8.10;99.90;;;;;;5080828;28;20047;-73
2023/11/08 06:11:07;;;;;;;27.67;15.45;;;8.10;99.90;;;;;;5079939;28;20705;-73
2023/11/08 06:13:33;;;;;;;29.27;15.25;;;8.10;99.90;;;;;;5081175;28;20641;-71
2023/11/08 06:15:59;;;;;;;31.10;16.00;;;8.10;99.90;;;;;;5080701;28;20031;-74
2023/11/08 06:18:26;;;;;;;32.38;16.35;;;8.10;99.90;;;;;;5081292;28;20032;-74
2023/11/08 06:20:53;;;;;;;33.85;17.50;;;8.10;99.90;;;;;;5079671;28;20492;-74
2023/11/08 06:23:19;;;;;;;32.60;16.85;;;8.10;99.90;;;;;;5079046;28;20559;-73
2023/11/08 06:25:44;;;;;;;32.97;18.33;;;8.00;99.90;;;;;;5080264;28;20032;-74
2023/11/08 06:28:10;;;;;;;36.00;18.23;;;8.00;99.90;;;;;;5080268;28;20016;-74
2023/11/08 06:30:35;;;;;;;36.97;18.48;;;8.00;99.90;;;;;;5079618;28;20028;-72
2023/11/08 06:33:05;;;;;;;36.75;19.27;;;7.90;99.90;;;;;;5078141;28;20024;-72
2023/11/08 06:35:30;;;;;;;39.03;20.55;;;8.00;99.90;;;;;;5080387;28;20047;-75
2023/11/08 06:37:57;;;;;;;33.35;19.58;;;7.90;99.90;;;;;;5077569;28;20097;-73
2023/11/08 06:40:24;;;;;;;33.17;16.55;;;7.90;99.90;;;;;;5080078;28;20042;-74
2023/11/08 06:42:50;;;;;;;30.92;18.10;;;7.90;99.90;;;;;;5081077;28;20016;-74
2023/11/08 06:45:16;;;;;;;36.90;19.23;;;7.90;99.90;;;;;;5079741;28;20022;-75
2023/11/08 06:47:42;;;;;;;34.33;17.50;;;7.80;99.90;;;;;;5080892;28;20021;-74
2023/11/08 06:50:10;;;;;;;35.05;18.13;;;7.90;99.90;;;;;;5080320;28;20354;-73
2023/11/08 06:52:37;;;;;;;36.78;17.23;;;7.90;99.90;;;;;;5080303;28;20056;-74
2023/11/08 06:55:04;;;;;;;32.50;16.77;;;7.80;99.90;;;;;;5080002;28;20021;-75
2023/11/08 06:57:31;;;;;;;34.50;19.08;;;7.80;99.90;;;;;;5080029;28;20148;-76
2023/11/08 06:59:57;;;;;;;30.63;17.73;;;7.80;99.90;;;;;;5080238;28;20038;-74
2023/11/08 07:02:22;;;;;;;39.97;19.63;;;7.80;99.90;;;;;;5080770;28;20048;-73
2023/11/08 07:04:48;;;;;;;33.40;18.38;;;7.90;99.90;;;;;;5080127;28;20036;-74
2023/11/08 07:07:14;;;;;;;32.30;16.80;;;7.90;99.90;;;;;;5080370;28;20109;-80
2023/11/08 07:09:39;;;;;;;34.05;16.63;;;7.90;99.90;;;;;;5080566;28;20048;-73
2023/11/08 07:12:05;;;;;;;32.33;18.25;;;7.90;99.90;;;;;;5080185;28;20028;-72
2023/11/08 07:14:31;;;;;;;33.40;16.00;;;8.00;99.90;;;;;;5081830;28;20039;-73
2023/11/08 07:16:57;;;;;;;41.13;18.80;;;8.00;99.90;;;;;;5085025;28;20038;-77
2023/11/08 07:19:23;;;;;;;38.10;19.63;;;8.20;99.90;;;;;;5084146;28;20028;-78
2023/11/08 07:21:49;;;;;;;37.95;19.00;;;8.00;99.90;;;;;;5084503;28;20036;-76
2023/11/08 07:24:14;;;;;;;40.20;17.48;;;8.10;99.90;;;;;;5082128;28;20055;-76
2023/11/08 07:26:40;;;;;;;39.22;18.92;;;8.20;99.90;;;;;;5083781;28;20025;-76
2023/11/08 07:29:07;;;;;;;41.10;19.02;;;8.10;99.90;;;;;;5084016;28;20020;-77
2023/11/08 07:31:35;;;;;;;42.20;19.25;;;8.10;99.90;;;;;;5083801;28;20024;-77
2023/11/08 07:34:01;;;;;;;41.78;20.20;;;8.10;99.90;;;;;;5082244;28;20055;-78
2023/11/08 07:36:29;;;;;;;43.90;20.92;;;8.20;99.90;;;;;;5083590;28;20035;-75
2023/11/08 07:38:55;;;;;;;47.47;20.13;;;8.10;99.90;;;;;;5081487;28;20040;-76
2023/11/08 07:41:20;;;;;;;40.42;17.38;;;8.00;99.90;;;;;;5082396;28;20020;-80
2023/11/08 07:43:47;;;;;;;34.97;18.75;;;8.10;99.90;;;;;;5082658;28;20052;-77
2023/11/08 07:46:12;;;;;;;40.17;19.10;;;8.10;99.90;;;;;;5083883;28;20036;-75
2023/11/08 07:48:38;;;;;;;43.75;19.13;;;8.10;99.90;;;;;;5082419;28;20017;-74
2023/11/08 07:51:04;;;;;;;34.42;16.38;;;8.10;99.90;;;;;;5084017;28;20024;-72
2023/11/08 07:53:30;;;;;;;39.35;19.45;;;8.10;99.90;;;;;;5083753;28;20028;-74
2023/11/08 07:55:55;;;;;;;38.42;18.10;;;8.20;99.90;;;;;;5080228;28;20029;-75
2023/11/08 07:58:21;;;;;;;40.38;18.25;;;8.30;99.90;;;;;;5082096;28;20057;-73
2023/11/08 08:00:47;;;;;;;37.70;18.77;;;8.30;99.90;;;;;;5083956;28;20025;-74
2023/11/08 08:03:13;;;;;;;31.42;15.50;;;8.40;99.90;;;;;;5084752;28;20025;-72
2023/11/08 08:05:44;;;;;;;34.03;16.20;;;8.30;99.90;;;;;;5081393;28;20025;-73
2023/11/08 08:08:10;;;;;;;41.72;18.85;;;8.40;99.90;;;;;;5081410;28;20020;-74
2023/11/08 08:10:36;;;;;;;40.83;17.85;;;8.40;99.90;;;;;;5080891;28;20029;-73
2023/11/08 08:13:05;;;;;;;38.97;18.85;;;8.30;99.90;;;;;;5083017;28;20044;-73
2023/11/08 08:15:31;;;;;;;43.80;19.25;;;8.40;99.90;;;;;;5082200;28;20028;-74
2023/11/08 08:17:58;;;;;;;34.88;17.27;;;8.50;99.90;;;;;;5081121;28;20056;-73
2023/11/08 08:20:25;;;;;;;42.40;18.77;;;8.40;99.90;;;;;;5082668;28;20024;-76
2023/11/08 08:22:51;;;;;;;41.08;19.00;;;8.60;99.90;;;;;;5083171;28;20062;-74
2023/11/08 08:25:16;;;;;;;43.00;19.42;;;8.50;99.90;;;;;;5081765;28;20092;-74
2023/11/08 08:27:42;;;;;;;39.28;18.08;;;8.50;99.90;;;;;;5081595;28;20031;-76
2023/11/08 08:30:14;;;;;;;47.30;20.67;;;8.50;99.90;;;;;;5082975;28;20021;-74
2023/11/08 08:32:49;;;;;;;41.15;20.25;;;8.50;99.90;;;;;;5082073;28;20034;-73
2023/11/08 08:35:15;;;;;;;41.90;20.38;;;8.50;99.90;;;;;;5081313;28;20088;-74
2023/11/08 08:37:41;;;;;;;40.80;20.42;;;8.60;99.90;;;;;;5079603;28;20138;-72
2023/11/08 08:40:13;;;;;;;46.33;20.58;;;8.70;99.90;;;;;;5080342;28;20029;-74
2023/11/08 08:42:40;;;;;;;41.90;20.77;;;8.70;99.90;;;;;;5082206;28;20074;-72
2023/11/08 08:45:08;;;;;;;42.92;19.98;;;8.60;99.90;;;;;;5082901;28;20358;-74
2023/11/08 08:47:34;;;;;;;40.50;19.25;;;8.80;99.90;;;;;;5082396;28;20028;-71
2023/11/08 08:50:01;;;;;;;38.90;19.95;;;8.90;99.90;;;;;;5082757;28;20029;-74
2023/11/08 08:52:26;;;;;;;41.42;20.65;;;8.90;99.90;;;;;;5082544;28;20013;-75
2023/11/08 08:54:52;;;;;;;41.22;19.63;;;9.00;99.90;;;;;;5083623;28;20025;-72
2023/11/08 08:57:17;;;;;;;37.17;18.10;;;9.10;99.90;;;;;;5082983;28;20056;-72
2023/11/08 08:59:43;;;;;;;41.50;19.30;;;9.00;99.90;;;;;;5082534;28;20023;-76
2023/11/08 09:02:10;;;;;;;37.42;17.80;;;9.10;99.90;;;;;;5082318;28;20036;-71
2023/11/08 09:04:36;;;;;;;38.60;19.27;;;9.10;99.90;;;;;;5082661;28;20042;-74
2023/11/08 09:07:03;;;;;;;40.38;18.52;;;9.10;99.90;;;;;;5080999;28;20088;-72
2023/11/08 09:09:29;;;;;;;38.40;17.85;;;9.20;99.90;;;;;;5081704;28;20021;-74
2023/11/08 09:11:55;;;;;;;41.75;18.45;;;9.20;99.90;;;;;;5081644;28;20077;-73
2023/11/08 09:14:20;;;;;;;33.13;16.92;;;9.20;99.90;;;;;;5082308;28;20116;-73
2023/11/08 09:16:46;;;;;;;41.58;17.92;;;9.30;99.90;;;;;;5080864;28;20067;-71
2023/11/08 09:19:12;;;;;;;36.10;18.23;;;9.50;99.90;;;;;;5082211;28;20040;-70
2023/11/08 09:21:38;;;;;;;32.13;16.80;;;9.60;99.90;;;;;;5082053;28;20028;-73
2023/11/08 09:24:06;;;;;;;38.85;17.27;;;9.70;99.90;;;;;;5080892;28;20093;-73
2023/11/08 09:26:33;;;;;;;32.75;17.55;;;9.70;99.90;;;;;;5081470;28;20027;-74
2023/11/08 09:28:59;;;;;;;35.03;16.23;;;9.80;99.90;;;;;;5082267;28;20030;-74
2023/11/08 09:31:27;;;;;;;31.92;13.05;;;9.90;99.90;;;;;;5082122;28;20020;-71
2023/11/08 09:33:56;;;;;;;24.85;14.82;;;9.90;99.90;;;;;;5081636;28;20036;-72
2023/11/08 09:36:22;;;;;;;29.98;15.40;;;10.10;99.90;;;;;;5081550;28;20143;-73
2023/11/08 09:38:50;;;;;;;28.30;13.13;;;10.10;99.90;;;;;;5080696;28;20044;-72
2023/11/08 09:41:17;;;;;;;31.38;14.05;;;10.30;99.90;;;;;;5081608;28;20534;-73
2023/11/08 09:43:44;;;;;;;30.25;15.10;;;10.30;99.90;;;;;;5081361;28;20044;-73
2023/11/08 09:46:10;;;;;;;28.25;14.35;;;10.20;99.90;;;;;;5081883;28;20035;-70
2023/11/08 09:48:36;;;;;;;27.08;12.57;;;10.10;99.90;;;;;;5081634;28;20039;-72
2023/11/08 09:51:02;;;;;;;30.95;14.05;;;10.10;99.90;;;;;;5081365;28;20063;-72
2023/11/08 09:53:30;;;;;;;41.58;15.80;;;10.00;99.90;;;;;;5081718;28;20031;-74
2023/11/08 09:55:58;;;;;;;31.92;13.75;;;10.00;99.90;;;;;;5081693;28;20021;-75
2023/11/08 09:58:24;;;;;;;31.15;14.43;;;9.90;99.90;;;;;;5079606;28;20052;-72
2023/11/08 10:00:55;;;;;;;31.50;13.95;;;9.90;99.90;;;;;;5081222;28;20062;-73
2023/11/08 10:03:25;;;;;;;32.50;13.80;;;9.80;99.90;;;;;;5078120;28;20020;-72
2023/11/08 10:05:51;;;;;;;29.48;11.95;;;9.90;99.90;;;;;;5079775;28;20050;-74
2023/11/08 10:08:18;;;;;;;30.45;13.40;;;9.90;99.90;;;;;;5080396;28;20016;-74
2023/11/08 10:10:48;;;;;;;34.67;14.15;;;9.90;99.90;;;;;;5079657;28;20041;-70
2023/11/08 10:13:14;;;;;;;31.58;13.85;;;9.80;99.90;;;;;;5079053;28;20461;-71
2023/11/08 10:15:41;;;;;;;28.05;13.15;;;9.90;99.90;;;;;;5073586;28;20032;-74
2023/11/08 10:18:08;;;;;;;31.52;14.45;;;9.90;99.90;;;;;;5079959;28;20552;-72
2023/11/08 10:20:37;;;;;;;29.70;14.52;;;9.90;99.90;;;;;;5080307;28;20107;-74
2023/11/08 10:23:06;;;;;;;36.58;15.15;;;9.90;99.90;;;;;;5079755;28;20050;-74
2023/11/08 10:25:32;;;;;;;34.40;15.95;;;9.90;99.90;;;;;;5078238;28;20405;-75
2023/11/08 10:28:07;;;;;;;28.15;15.00;;;9.90;99.90;;;;;;5080707;28;20037;-74
2023/11/08 10:30:39;;;;;;;33.28;15.48;;;9.90;99.90;;;;;;5077020;28;20036;-74
2023/11/08 10:33:12;;;;;;;30.95;14.57;;;9.90;99.90;;;;;;5077215;28;20025;-73
2023/11/08 10:35:42;;;;;;;26.80;14.65;;;9.90;99.90;;;;;;5080326;28;20057;-76
2023/11/08 10:38:10;;;;;;;37.45;16.15;;;10.00;99.90;;;;;;5078903;28;20028;-74
2023/11/08 10:40:36;;;;;;;33.30;15.23;;;10.00;99.90;;;;;;5079604;28;20023;-74
2023/11/08 10:43:04;;;;;;;29.92;15.77;;;10.00;99.90;;;;;;5080862;28;20013;-75
2023/11/08 10:45:32;;;;;;;26.60;12.98;;;10.00;99.90;;;;;;5078691;28;20086;-76
2023/11/08 10:47:59;;;;;;;31.73;14.07;;;10.00;99.90;;;;;;5080769;28;20017;-72
2023/11/08 10:50:26;;;;;;;34.78;13.13;;;10.00;99.90;;;;;;5080428;28;20021;-70
2023/11/08 10:52:52;;;;;;;28.45;12.88;;;10.00;99.90;;;;;;5079835;28;20113;-72
2023/11/08 10:55:25;;;;;;;27.77;13.18;;;10.00;99.90;;;;;;5080352;28;20055;-72
2023/11/08 10:58:01;;;;;;;29.70;14.23;;;10.00;99.90;;;;;;5079658;28;20404;-74
2023/11/08 11:00:31;;;;;;;25.83;13.82;;;10.00;99.90;;;;;;5080146;28;20074;-73
2023/11/08 11:03:05;;;;;;;27.67;13.68;;;10.00;99.90;;;;;;5078523;28;20574;-71
2023/11/08 11:05:35;;;;;;;27.15;12.43;;;10.00;99.90;;;;;;5079760;28;20017;-73
2023/11/08 11:08:04;;;;;;;33.95;13.35;;;10.00;99.90;;;;;;5080337;28;20028;-75
2023/11/08 11:10:32;;;;;;;23.85;12.95;;;10.10;99.90;;;;;;5080543;28;20052;-75
2023/11/08 11:13:03;;;;;;;23.15;12.00;;;10.10;99.90;;;;;;5079162;28;20021;-75
2023/11/08 11:15:53;;;;;;;21.42;12.43;;;10.20;99.90;;;;;;5080638;28;20020;-73
2023/11/08 11:18:24;;;;;;;25.25;12.48;;;10.20;99.90;;;;;;5080041;28;20043;-73
2023/11/08 11:21:12;;;;;;;23.13;10.43;;;10.10;99.90;;;;;;5080368;28;20021;-73
2023/11/08 11:23:41;;;;;;;23.40;11.52;;;10.10;99.90;;;;;;5078932;28;20025;-74
2023/11/08 11:26:10;;;;;;;22.40;11.32;;;10.20;99.90;;;;;;5078651;28;20415;-70
2023/11/08 11:28:52;;;;;;;20.73;10.95;;;10.10;99.90;;;;;;5079770;28;20032;-73
2023/11/08 11:31:38;;;;;;;25.40;9.70;;;10.20;99.90;;;;;;5078766;28;20056;-72
2023/11/08 11:34:26;;;;;;;15.57;8.52;;;10.20;99.90;;;;;;5080027;28;20114;-71
2023/11/08 11:37:13;;;;;;;17.98;9.82;;;10.20;99.90;;;;;;5079784;28;20119;-72
2023/11/08 11:39:42;;;;;;;20.73;10.48;;;10.20;99.90;;;;;;5080161;28;20079;-71
2023/11/08 11:42:23;;;;;;;22.80;10.68;;;10.20;99.90;;;;;;5078912;28;20065;-75
2023/11/08 11:44:54;;;;;;;19.80;10.05;;;10.20;99.90;;;;;;5080051;28;20551;-72
2023/11/08 11:47:28;;;;;;;18.67;9.00;;;10.30;99.90;;;;;;5079852;28;20029;-72
2023/11/08 11:50:02;;;;;;;23.45;9.65;;;10.30;99.90;;;;;;5078623;28;20024;-72
2023/11/08 11:52:29;;;;;;;;;;;10.50;99.90;;;;;;5080669;28;20029;-71
2023/11/08 11:54:56;;;;;;;15.88;8.70;;;10.60;99.90;;;;;;5079762;28;19963;-77
2023/11/08 11:57:24;;;;;;;19.13;9.07;;;10.70;99.90;;;;;;5079582;28;20051;-72
2023/11/08 11:59:54;;;;;;;18.13;8.63;;;10.80;99.90;;;;;;5079842;28;20432;-70
2023/11/08 12:02:21;;;;;;;17.58;8.40;;;11.00;99.90;;;;;;5082769;28;20037;-72
2023/11/08 12:04:48;;;;;;;16.98;8.07;;;11.00;99.90;;;;;;5082779;28;20475;-74
2023/11/08 12:07:15;;;;;;;14.75;7.20;;;11.30;99.90;;;;;;5083757;28;20024;-73
2023/11/08 12:09:42;;;;;;;13.48;6.70;;;11.70;99.90;;;;;;5083587;28;20020;-73
2023/11/08 12:12:08;;;;;;;13.15;5.82;;;12.00;99.90;;;;;;5083540;28;20021;-73
2023/11/08 12:14:36;;;;;;;17.33;6.13;;;12.40;99.90;;;;;;5084473;28;21275;-73
2023/11/08 12:17:07;;;;;;;9.82;5.07;;;12.50;99.90;;;;;;5083418;28;20111;-74
2023/11/08 12:19:33;;;;;;;9.70;5.35;;;12.50;99.90;;;;;;5083051;28;20028;-75
2023/11/08 12:22:00;;;;;;;17.08;5.22;;;12.50;99.90;;;;;;5082995;28;20428;-73
2023/11/08 12:24:32;;;;;;;10.75;5.00;;;12.50;99.90;;;;;;5083100;28;20020;-74
2023/11/08 12:27:02;;;;;;;10.48;4.97;;;12.50;99.90;;;;;;5082080;28;20024;-73
2023/11/08 12:29:28;;;;;;;7.30;4.30;;;12.50;99.90;;;;;;5083193;28;20106;-72
2023/11/08 12:31:54;;;;;;;14.32;4.65;;;12.60;99.90;;;;;;5081743;28;20500;-74
2023/11/08 12:34:21;;;;;;;10.88;4.28;;;12.40;99.90;;;;;;5082711;28;20096;-70
2023/11/08 12:36:47;;;;;;;11.35;4.63;;;12.30;99.90;;;;;;5081754;28;20034;-72